Pagina principale
METAR-TAF:

METAR-TAF

Aeroporti :

Polokwane, Sudafrica

latitudine: 23-50-43S, longitudine: 29-27-31E, altezza: 1242 m

Osservazione

Il bollettino è stato emesso 22 minuti fa, alle 06:00 UTC
Vento 3 kt da sud/sud-ovest
Temperature 7°C
Umidità 87%
Pressione 1028 hPa
Visibilità: 8000 m

METAR: FAPP 270600Z 21003KT 8000 NSC 07/05 Q1028 NOSIG

Ora: 08:22 (06:22 UTC)

Previsione

Il bollettino è stato emesso 3 ore e 17 minuti fa, alle 03:05 UTC
Previsione valida dal 27 alle 04 UTC al 27 alle 15 UTC
Vento 7 kt da nord-est
Visibilità 10 km o più
nessuna nube inferiore a 1500 m e nessun cumulonembo
Probabilità 40% :
Temporaneamente
dal 27 alle 04 UTC al 27 alle 07 UTC
Visibilità: 4000 m
Nuvoloso ad un'altezza di 800 ft
foschia
Evoluzione graduale
dal 27 alle 11 UTC al 27 alle 13 UTC
Vento 3 kt da direzioni variabili

TAF: FAPP 270305Z 2704/2715 05007KT CAVOK TX21/2713Z TN07/2705Z PROB40 TEMPO 2704/2707 4000 BR BKN008 BECMG 2711/2713 VRB03KT

Osservazioni e previsioni meteorologiche di più di 4000 aeroporti (messaggi METAR e TAF).

Le stazioni disponibili sono rappresentate dai dischi gialli e rossi sulla carta.

Puntare il mouse per vedere il nome della stazione.

Clicca sopra per visualizzare le osservazioni e previsioni meteorologiche.

Per cambiare la mappa : fare clic sui pulsanti verdi con una croce nera per ingrandire, il pulsante verde con un trattino per diminuire, o sulla freccia verde per le mappe adiacenti.


METAR-TAF: